ETNLEDDH

Guest
Details From ETNL - Laage
To EDDH - Hamburg
Flight Number -
Tags Generated
Created
Modified
Stats Distance 83 nm / 153 km
Max Altitude 0 ft / 0 m
Waypoints 2
Social Downloads 2
Likes 0
Share VATSIM

Download

Looking for another format? Having issues loading an existing format? Contact us
Advertisement - Login to hide

Notes

Generated

Route

ETNL EDDH

ID Type Via Altitude Latitude Longitude Leg Dist Tot Dist Heading (true) Name
O ETNL APT - 0 ft / 0 m 53.91967˚ 12.26033˚ - 0 nm - -
O EDDH APT - 0 ft / 0 m 53.65441˚ 9.97521˚ 82 nm 82 nm 260° / 258° -

Altitude Profile

Advertisement - Login to hide

ETNL

Details ICAO ETNL (RLG)
Name Laage
Region Germany - Military
Timezone Europe/Berlin (UTC+1.0)
Stats Elevation 138 ft / 42 m (AMSL)
Location 53.918084° 12.279250°
Runways 1
Magnetic Variation 3.519° E

METAR

ETNL 151020Z 22006KT 9999 BKN029 02/00 Q0994 BLU BLU TEMPO WHT

Decode

TAF

TAF ETNL 142300Z 1500/1512 23010KT 8000 NSW BKN012 TEMPO 1500/1504 24012KT 3000 BR SCT004 TEMPO 1504/1510 25005KT 0500 FG VV001 BY ETGL

Decode

Departure Runways

ID Width Length Bearing (true) Bearing (mag) Surface Threshold Offset Overrun Length
10 148 ft / 45 m 8,213 ft / 2,503 m 98.07° 94.55° Concrete 0 ft / 0 m 1,001 ft / 305 m
28 148 ft / 45 m 8,213 ft / 2,503 m 278.10° 274.58° Concrete 0 ft / 0 m 1,001 ft / 305 m

EDDH

Details ICAO EDDH (HAM)
Name Hamburg
Region Germany - Civil
Timezone Europe/Berlin (UTC+1.0)
Stats Elevation 53 ft / 16 m (AMSL)
Location 53.633665° 9.985235°
Runways 2
Magnetic Variation 2.786° E

METAR

EDDH 151020Z 24008KT 8000 SCT011 BKN240 03/01 Q0994 TEMPO BKN010

Decode

TAF

TAF EDDH 150500Z 1506/1612 24006KT 9999 BKN025 TEMPO 1507/1512 BKN012 TEMPO 1521/1606 BKN012

Decode

Destination Runways

ID Width Length Bearing (true) Bearing (mag) Surface Threshold Offset Overrun Length
05 151 ft / 46 m 10,647 ft / 3,245 m 50.18° 47.39° Asphalt 978 ft / 298 m 194 ft / 59 m
15 151 ft / 46 m 12,013 ft / 3,662 m 152.89° 150.10° Asphalt 0 ft / 0 m 194 ft / 59 m
23 151 ft / 46 m 10,647 ft / 3,245 m 230.22° 227.43° Asphalt 509 ft / 155 m 240 ft / 73 m
33 151 ft / 46 m 12,013 ft / 3,662 m 332.91° 330.12° Asphalt 1,463 ft / 446 m 164 ft / 50 m

Approach Navaids

Runway Type Ident Frequency Range Bearing (true) Bearing (mag) Slope Elevation
05 Localiser IHHE 110.50 MHz 18 nm / 33 km 50.19° 47.41° - 45 ft / 14 m (AMSL)
05 Glidescope IHHE 110.50 MHz 10 nm / 19 km 50.20° 47.41° 3.00° 32 ft / 10 m (AMSL)
15 Localiser IHHS 111.35 MHz 18 nm / 33 km 152.89° 150.10° - 38 ft / 12 m (AMSL)
15 Glidescope IHHS 111.35 MHz 10 nm / 19 km 152.90° 150.11° 3.00° 53 ft / 16 m (AMSL)
23 Localiser IHHW 111.50 MHz 18 nm / 33 km 230.21° 227.42° - 36 ft / 11 m (AMSL)
23 Glidescope IHHW 111.50 MHz 10 nm / 19 km 230.20° 227.41° 3.00° 43 ft / 13 m (AMSL)
33 Localiser IHHN 109.90 MHz 18 nm / 33 km 332.88° 330.10° - 53 ft / 16 m (AMSL)

Popular Alternatives